The Canyons, Utah
Current Conditions -  °F | °C
As of 6:15 PM on Tuesday 21 Oct 2014 (Local Time) from K36U Reporting Station
Overcast Overcast  
Wind Chill: 54°   Ceiling: 9500
Heat Index: 54°   Visibility: 10mi
Dew Point: 34°   Wind: 3mph
Humidity: 47%   Direction: 10°N
Pressure: 30.01"   Gusts: NA
Location:  40.71°N, 111.53°W
Report Text: K36U 220015Z AUTO 01003KT 10SM SCT080 OVC095 12/01 A3001 RMK AO2
Loading
Personal Weather Stations






























Interactive Weather Map
Tropical Storm Tracking
New forecast layout! Learn more

10-Day Weather Forecast

Advertisements
Track Severe Weather on mobile